createdAt,value
2022-08-09T00:02:28.795Z,19.30
2022-08-09T00:05:02.849Z,19.23
2022-08-09T00:07:45.019Z,19.33
2022-08-09T00:10:18.128Z,19.05
2022-08-09T00:12:51.709Z,19.12
2022-08-09T00:15:26.826Z,18.72
2022-08-09T00:18:11.265Z,18.84
2022-08-09T00:20:41.386Z,18.90
2022-08-09T00:23:54.572Z,18.72
2022-08-09T00:25:56.691Z,18.73
2022-08-09T00:28:26.496Z,18.87
2022-08-09T00:30:54.080Z,18.71
2022-08-09T00:33:20.755Z,18.44
2022-08-09T00:36:07.708Z,18.55
2022-08-09T00:38:35.448Z,18.42
2022-08-09T00:41:05.379Z,18.46
2022-08-09T00:44:11.610Z,18.75
2022-08-09T00:46:45.404Z,18.74
2022-08-09T00:49:11.248Z,18.94
2022-08-09T00:51:42.653Z,18.49
2022-08-09T00:54:22.992Z,18.56
2022-08-09T00:56:49.777Z,18.58
2022-08-09T00:59:31.673Z,18.48
2022-08-09T01:02:05.335Z,18.48
2022-08-09T01:04:49.328Z,18.74
2022-08-09T01:07:37.599Z,18.08
2022-08-09T01:10:51.183Z,18.43
2022-08-09T01:13:53.265Z,18.49
2022-08-09T01:16:24.846Z,18.15
2022-08-09T01:19:04.263Z,18.41
2022-08-09T01:21:59.362Z,18.11
2022-08-09T01:24:52.950Z,18.41
2022-08-09T01:27:23.988Z,18.36
2022-08-09T01:29:57.006Z,18.20
2022-08-09T01:32:34.074Z,18.26
2022-08-09T01:35:28.239Z,18.08
2022-08-09T01:38:09.630Z,18.14
2022-08-09T01:40:44.029Z,17.95
2022-08-09T01:43:12.086Z,17.63
2022-08-09T01:45:46.076Z,17.90
2022-08-09T01:48:19.680Z,18.09
2022-08-09T01:50:54.941Z,17.89
2022-08-09T01:53:23.936Z,17.70
2022-08-09T01:55:57.351Z,17.75
2022-08-09T01:58:27.255Z,17.69
2022-08-09T02:00:57.278Z,17.62
2022-08-09T02:03:24.992Z,17.53
2022-08-09T02:06:39.491Z,17.58
2022-08-09T02:09:13.771Z,18.00
2022-08-09T02:11:44.080Z,17.89
2022-08-09T02:14:15.962Z,17.76
2022-08-09T02:17:14.609Z,17.84
2022-08-09T02:19:43.593Z,18.13
2022-08-09T02:22:31.521Z,18.05
2022-08-09T02:25:04.634Z,18.01
2022-08-09T02:27:57.735Z,17.87
2022-08-09T02:30:25.323Z,17.85
2022-08-09T02:32:55.074Z,17.91
2022-08-09T02:36:01.251Z,17.70
2022-08-09T02:38:21.848Z,17.70
2022-08-09T02:40:49.618Z,17.67
2022-08-09T02:43:21.235Z,17.64
2022-08-09T02:45:50.010Z,17.51
2022-08-09T02:48:29.754Z,17.57
2022-08-09T02:51:02.411Z,17.40
2022-08-09T02:53:43.142Z,17.62
2022-08-09T02:56:21.373Z,17.26
2022-08-09T02:58:49.581Z,17.09
2022-08-09T03:01:29.057Z,17.08
2022-08-09T03:04:17.160Z,17.28
2022-08-09T03:06:45.374Z,17.22
2022-08-09T03:09:14.524Z,17.32
2022-08-09T03:12:06.137Z,17.35
2022-08-09T03:14:31.982Z,17.27
2022-08-09T03:17:02.270Z,17.10
2022-08-09T03:19:58.404Z,16.77
2022-08-09T03:22:30.319Z,16.94
2022-08-09T03:25:20.476Z,17.18
2022-08-09T03:27:51.450Z,17.30
2022-08-09T03:30:29.303Z,17.13
2022-08-09T03:33:01.903Z,17.18
2022-08-09T03:35:44.222Z,17.05
2022-08-09T03:38:28.894Z,17.07
2022-08-09T03:40:55.941Z,16.60
2022-08-09T03:43:22.598Z,16.48
2022-08-09T03:46:03.148Z,16.42
2022-08-09T03:48:48.223Z,16.36
2022-08-09T03:51:54.207Z,16.66
2022-08-09T03:54:11.240Z,16.49
2022-08-09T03:56:41.291Z,16.34
2022-08-09T03:59:20.937Z,16.50
2022-08-09T04:01:50.111Z,16.59
2022-08-09T04:04:18.224Z,16.48
2022-08-09T04:06:49.340Z,16.32
2022-08-09T04:09:47.389Z,16.24
2022-08-09T04:12:30.987Z,16.73
2022-08-09T04:15:01.976Z,16.40
2022-08-09T04:17:39.276Z,16.36
2022-08-09T04:20:07.434Z,16.73
2022-08-09T04:22:34.534Z,16.67
2022-08-09T04:25:04.636Z,16.40
2022-08-09T04:27:32.787Z,16.61
2022-08-09T04:30:05.013Z,16.62
2022-08-09T04:32:37.015Z,16.73
2022-08-09T04:35:08.520Z,16.82
2022-08-09T04:37:45.901Z,16.51
2022-08-09T04:40:19.639Z,16.96
2022-08-09T04:43:01.486Z,17.00
2022-08-09T04:45:30.601Z,16.71
2022-08-09T04:48:03.076Z,16.81
2022-08-09T04:50:34.915Z,16.98
2022-08-09T04:53:13.443Z,17.04
2022-08-09T04:55:58.381Z,17.15
2022-08-09T04:58:31.942Z,17.25
2022-08-09T05:01:01.410Z,17.25
2022-08-09T05:03:39.919Z,17.17
2022-08-09T05:06:21.987Z,17.16
2022-08-09T05:09:00.641Z,17.32
2022-08-09T05:11:32.373Z,17.39
2022-08-09T05:14:05.956Z,17.51
2022-08-09T05:16:58.107Z,17.47
2022-08-09T05:19:24.441Z,17.58
2022-08-09T05:21:55.449Z,17.62
2022-08-09T05:24:24.312Z,17.82
2022-08-09T05:26:52.129Z,17.80
2022-08-09T05:29:23.925Z,17.85
2022-08-09T05:31:56.248Z,17.64
2022-08-09T05:34:31.499Z,17.67
2022-08-09T05:37:06.070Z,18.01
2022-08-09T05:39:43.524Z,17.71
2022-08-09T05:42:16.945Z,17.90
2022-08-09T05:44:53.205Z,18.17
2022-08-09T05:47:24.691Z,18.21
2022-08-09T05:50:34.837Z,18.39
2022-08-09T05:52:44.517Z,18.66
2022-08-09T05:55:23.303Z,18.97
2022-08-09T05:57:56.507Z,18.70
2022-08-09T06:00:29.633Z,19.09
2022-08-09T06:03:02.701Z,19.37
2022-08-09T06:05:56.883Z,19.44
2022-08-09T06:08:24.344Z,19.45
2022-08-09T06:10:55.676Z,19.86
2022-08-09T06:13:23.753Z,19.96
2022-08-09T06:15:52.389Z,19.93
2022-08-09T06:18:24.760Z,20.29
2022-08-09T06:20:54.577Z,20.21
2022-08-09T06:23:57.302Z,20.40
2022-08-09T06:26:20.329Z,20.61
2022-08-09T06:28:59.927Z,20.91
2022-08-09T06:31:30.733Z,20.81
2022-08-09T06:34:06.290Z,20.86
2022-08-09T06:36:33.983Z,20.97
2022-08-09T06:39:02.512Z,21.19
2022-08-09T06:41:57.499Z,21.29
2022-08-09T06:44:25.726Z,21.35
2022-08-09T06:46:55.465Z,21.54
2022-08-09T06:49:44.659Z,21.42
2022-08-09T06:52:10.596Z,21.52
2022-08-09T06:54:41.136Z,21.59
2022-08-09T06:57:08.467Z,21.47
2022-08-09T07:00:50.916Z,21.65
2022-08-09T07:02:22.715Z,21.87
2022-08-09T07:05:08.404Z,22.12
2022-08-09T07:07:58.779Z,22.11
2022-08-09T07:10:47.183Z,21.86
2022-08-09T07:13:27.447Z,22.13
2022-08-09T07:16:39.013Z,22.30
2022-08-09T07:18:42.332Z,22.25
2022-08-09T07:21:09.984Z,22.55
2022-08-09T07:23:56.351Z,22.45
2022-08-09T07:26:23.905Z,22.40
2022-08-09T07:29:08.394Z,22.47
2022-08-09T07:31:38.650Z,22.53
2022-08-09T07:34:19.400Z,22.85
2022-08-09T07:36:49.098Z,22.78
2022-08-09T07:39:20.168Z,23.00
2022-08-09T07:42:03.658Z,23.20
2022-08-09T07:44:50.995Z,23.02
2022-08-09T07:47:19.859Z,23.23
2022-08-09T07:50:07.812Z,23.38
2022-08-09T07:52:36.757Z,23.71
2022-08-09T07:55:09.539Z,23.61
2022-08-09T07:57:36.993Z,23.71
2022-08-09T08:00:08.904Z,23.83
2022-08-09T08:02:42.997Z,23.93
2022-08-09T08:05:18.034Z,24.00
2022-08-09T08:09:01.360Z,24.27
2022-08-09T08:10:34.497Z,24.41
2022-08-09T08:13:04.630Z,24.44
2022-08-09T08:15:37.552Z,24.54
2022-08-09T08:18:07.663Z,24.72
2022-08-09T08:21:01.341Z,24.62
2022-08-09T08:23:28.146Z,24.69
2022-08-09T08:26:06.484Z,24.95
2022-08-09T08:28:38.400Z,24.94
2022-08-09T08:31:14.290Z,24.93
2022-08-09T08:33:53.848Z,25.09
2022-08-09T08:36:28.902Z,25.42
2022-08-09T08:38:56.762Z,25.31
2022-08-09T08:41:24.494Z,25.62
2022-08-09T08:44:10.110Z,25.48
2022-08-09T08:46:59.734Z,25.19
2022-08-09T08:49:38.554Z,25.76
2022-08-09T08:52:53.008Z,25.86
2022-08-09T08:55:05.720Z,26.09
2022-08-09T08:57:34.658Z,26.00
2022-08-09T09:00:07.904Z,25.88
2022-08-09T09:02:41.360Z,26.24
2022-08-09T09:05:12.120Z,26.26
2022-08-09T09:07:42.318Z,26.15
2022-08-09T09:10:10.292Z,26.17
2022-08-09T09:12:37.331Z,26.20
2022-08-09T09:15:06.497Z,26.46
2022-08-09T09:17:49.501Z,26.65
2022-08-09T09:20:20.665Z,26.80
2022-08-09T09:22:54.405Z,26.74
2022-08-09T09:26:01.654Z,27.03
2022-08-09T09:28:39.255Z,27.01
2022-08-09T09:32:06.692Z,27.01
2022-08-09T09:34:17.980Z,27.13
2022-08-09T09:36:51.104Z,27.29
2022-08-09T09:39:23.460Z,27.18
2022-08-09T09:41:54.219Z,27.39
2022-08-09T09:44:33.937Z,27.44
2022-08-09T09:47:05.608Z,27.55
2022-08-09T09:50:07.758Z,27.69
2022-08-09T09:52:52.447Z,27.84
2022-08-09T09:55:24.110Z,28.07
2022-08-09T09:58:12.577Z,28.24
2022-08-09T10:00:54.131Z,28.44
2022-08-09T10:03:56.375Z,28.88
2022-08-09T10:06:26.691Z,27.95
2022-08-09T10:09:03.178Z,28.53
2022-08-09T10:12:00.163Z,28.16
2022-08-09T10:14:35.585Z,28.71
2022-08-09T10:17:39.110Z,29.18
2022-08-09T10:20:00.493Z,29.29
2022-08-09T10:22:33.392Z,29.07
2022-08-09T10:25:03.512Z,29.29
2022-08-09T10:27:56.277Z,28.99
2022-08-09T10:34:04.518Z,28.96
2022-08-09T10:36:11.476Z,29.55
2022-08-09T10:38:55.832Z,29.24
2022-08-09T10:41:24.285Z,29.50
2022-08-09T10:44:01.126Z,29.71
2022-08-09T10:47:00.639Z,29.77
2022-08-09T10:49:54.382Z,29.39
2022-08-09T10:52:42.867Z,29.57
2022-08-09T10:55:27.650Z,31.17
2022-08-09T10:57:59.793Z,32.01
2022-08-09T11:00:35.668Z,31.56
2022-08-09T11:03:49.757Z,32.55
2022-08-09T11:06:21.087Z,32.89
2022-08-09T11:08:51.798Z,33.80
2022-08-09T11:11:21.402Z,34.69
2022-08-09T11:14:28.143Z,34.32
2022-08-09T11:16:57.033Z,33.20
2022-08-09T11:20:10.481Z,32.98
2022-08-09T11:22:45.447Z,35.20
2022-08-09T11:25:13.179Z,36.23
2022-08-09T11:28:05.324Z,37.22
2022-08-09T11:30:32.657Z,37.92
2022-08-09T11:33:04.115Z,37.08
2022-08-09T11:35:49.809Z,37.43
2022-08-09T11:38:18.319Z,39.05
2022-08-09T11:40:45.404Z,39.15
2022-08-09T11:43:27.774Z,38.57
2022-08-09T11:46:08.626Z,37.57
2022-08-09T11:48:49.232Z,36.19
2022-08-09T11:52:49.161Z,34.94
2022-08-09T11:54:27.754Z,34.88
2022-08-09T11:57:59.830Z,34.18
2022-08-09T12:00:27.285Z,32.79
2022-08-09T12:02:57.377Z,32.59
2022-08-09T12:05:39.572Z,32.27
2022-08-09T12:08:12.507Z,32.46
2022-08-09T12:10:53.639Z,32.29
2022-08-09T12:14:10.757Z,31.02
2022-08-09T12:16:40.086Z,31.95
2022-08-09T12:19:11.386Z,32.72
2022-08-09T12:21:50.820Z,33.72
2022-08-09T12:24:25.202Z,33.96
2022-08-09T12:28:59.164Z,34.97
2022-08-09T12:30:01.477Z,35.24
2022-08-09T12:32:31.359Z,35.21
2022-08-09T12:35:04.747Z,35.33
2022-08-09T12:37:44.276Z,35.28
2022-08-09T12:40:23.180Z,35.17
2022-08-09T12:42:52.384Z,35.50
2022-08-09T12:45:34.507Z,35.23
2022-08-09T12:48:19.909Z,34.75
2022-08-09T12:50:57.917Z,35.68
2022-08-09T12:53:37.844Z,37.10
2022-08-09T12:56:14.894Z,37.75
2022-08-09T12:59:05.144Z,37.38
2022-08-09T13:01:31.968Z,35.68
2022-08-09T13:04:01.891Z,35.57
2022-08-09T13:06:35.710Z,35.69
2022-08-09T13:09:06.043Z,35.28
2022-08-09T13:11:39.627Z,36.72
2022-08-09T13:14:41.102Z,36.65
2022-08-09T13:17:15.934Z,38.15
2022-08-09T13:20:09.598Z,37.04
2022-08-09T13:23:01.323Z,36.72
2022-08-09T13:25:20.023Z,38.83
2022-08-09T13:27:55.375Z,39.96
2022-08-09T13:30:50.035Z,41.10
2022-08-09T13:33:24.873Z,40.95
2022-08-09T13:36:24.396Z,39.62
2022-08-09T13:39:02.206Z,38.81
2022-08-09T13:41:58.040Z,40.68
2022-08-09T13:44:21.783Z,39.96
2022-08-09T13:47:26.445Z,40.70
2022-08-09T13:49:39.831Z,40.44
2022-08-09T13:52:27.256Z,41.34
2022-08-09T13:54:59.026Z,40.86
2022-08-09T13:57:35.703Z,41.61
2022-08-09T14:00:12.259Z,41.85
2022-08-09T14:02:42.153Z,41.52
2022-08-09T14:05:12.285Z,42.33
2022-08-09T14:08:01.509Z,41.61
2022-08-09T14:10:46.239Z,40.29
2022-08-09T14:13:28.023Z,41.82
2022-08-09T14:16:09.190Z,41.23
2022-08-09T14:18:37.468Z,41.56
2022-08-09T14:21:04.288Z,41.62
2022-08-09T14:23:39.994Z,39.97
2022-08-09T14:26:07.764Z,39.08
2022-08-09T14:28:37.327Z,38.43
2022-08-09T14:31:04.355Z,38.61
2022-08-09T14:33:31.085Z,39.01
2022-08-09T14:36:20.330Z,38.45
2022-08-09T14:38:52.606Z,36.60
2022-08-09T14:41:26.644Z,35.57
2022-08-09T14:44:11.163Z,34.66
2022-08-09T14:47:03.102Z,34.01
2022-08-09T14:49:26.694Z,34.12
2022-08-09T14:51:58.813Z,34.13
2022-08-09T14:54:27.744Z,34.18
2022-08-09T14:56:58.672Z,34.27
2022-08-09T14:59:27.471Z,33.89
2022-08-09T15:01:55.948Z,34.00
2022-08-09T15:04:23.551Z,33.94
2022-08-09T15:06:51.679Z,33.54
2022-08-09T15:10:03.904Z,33.28
2022-08-09T15:12:07.888Z,33.99
2022-08-09T15:14:38.546Z,32.79
2022-08-09T15:17:09.577Z,33.03
2022-08-09T15:19:37.156Z,33.30
2022-08-09T15:22:30.389Z,33.42
2022-08-09T15:25:00.088Z,32.63
2022-08-09T15:27:30.583Z,32.72
2022-08-09T15:30:48.303Z,32.59
2022-08-09T15:33:01.097Z,32.39
2022-08-09T15:35:44.028Z,32.59
2022-08-09T15:38:12.279Z,32.45
2022-08-09T15:40:43.749Z,32.34
2022-08-09T15:43:13.523Z,31.79
2022-08-09T15:45:51.743Z,32.46
2022-08-09T15:48:29.321Z,32.70
2022-08-09T15:50:59.960Z,32.48
2022-08-09T15:54:03.756Z,32.19
2022-08-09T15:56:28.513Z,32.11
2022-08-09T15:58:58.138Z,32.08
2022-08-09T16:01:25.036Z,31.90
2022-08-09T16:03:52.430Z,32.02
2022-08-09T16:06:32.374Z,32.37
2022-08-09T16:09:03.448Z,32.37
2022-08-09T16:11:33.259Z,32.29
2022-08-09T16:14:03.250Z,32.04
2022-08-09T16:16:32.804Z,32.02
2022-08-09T16:19:01.657Z,32.41
2022-08-09T16:21:31.670Z,32.46
2022-08-09T16:24:04.869Z,32.53
2022-08-09T16:26:35.602Z,32.71
2022-08-09T16:29:11.519Z,32.55
2022-08-09T16:32:19.294Z,33.07
2022-08-09T16:34:56.505Z,32.58
2022-08-09T16:37:18.884Z,32.86
2022-08-09T16:39:54.803Z,32.88
2022-08-09T16:42:32.562Z,32.74
2022-08-09T16:44:59.270Z,32.70
2022-08-09T16:48:41.364Z,33.30
2022-08-09T16:50:31.821Z,32.88
2022-08-09T16:52:59.531Z,32.56
2022-08-09T16:55:26.552Z,32.05
2022-08-09T16:58:08.568Z,31.89
2022-08-09T17:00:36.782Z,31.87
2022-08-09T17:03:08.903Z,32.08
2022-08-09T17:06:06.669Z,32.14
2022-08-09T17:08:46.509Z,31.91
2022-08-09T17:11:37.636Z,31.17
2022-08-09T17:14:26.260Z,31.27
2022-08-09T17:17:01.586Z,31.49
2022-08-09T17:20:06.048Z,31.54
2022-08-09T17:22:23.506Z,30.87
2022-08-09T17:24:55.214Z,30.82
2022-08-09T17:27:22.904Z,30.47
2022-08-09T17:29:51.022Z,30.05
2022-08-09T17:32:20.357Z,30.13
2022-08-09T17:35:04.297Z,29.70
2022-08-09T17:38:13.106Z,29.85
2022-08-09T17:40:26.182Z,30.07
2022-08-09T17:42:59.642Z,30.03
2022-08-09T17:46:03.356Z,29.79
2022-08-09T17:48:28.665Z,29.73
2022-08-09T17:50:59.536Z,29.70
2022-08-09T17:53:43.405Z,29.45
2022-08-09T17:56:15.104Z,29.57
2022-08-09T17:58:45.233Z,29.42
2022-08-09T18:01:15.367Z,29.04
2022-08-09T18:03:49.536Z,29.45
2022-08-09T18:06:30.987Z,29.08
2022-08-09T18:09:04.824Z,28.84
2022-08-09T18:11:46.887Z,28.43
2022-08-09T18:14:21.920Z,28.65
2022-08-09T18:16:49.839Z,28.27
2022-08-09T18:20:59.459Z,28.61
2022-08-09T18:22:05.428Z,28.67
2022-08-09T18:24:32.266Z,28.80
2022-08-09T18:27:01.039Z,28.62
2022-08-09T18:30:35.655Z,28.62
2022-08-09T18:32:19.025Z,28.49
2022-08-09T18:34:46.137Z,28.45
2022-08-09T18:37:46.833Z,28.29
2022-08-09T18:40:02.134Z,28.22
2022-08-09T18:42:29.448Z,28.18
2022-08-09T18:44:56.970Z,27.92
2022-08-09T18:47:37.340Z,27.98
2022-08-09T18:50:10.013Z,27.76
2022-08-09T18:52:39.363Z,27.65
2022-08-09T18:55:13.903Z,27.35
2022-08-09T18:57:43.444Z,27.20
2022-08-09T19:00:16.454Z,26.81
2022-08-09T19:02:54.079Z,26.78
2022-08-09T19:05:28.636Z,26.42
2022-08-09T19:08:10.619Z,26.30
2022-08-09T19:10:41.046Z,25.89
2022-08-09T19:13:20.606Z,25.93
2022-08-09T19:15:58.599Z,25.57
2022-08-09T19:18:34.143Z,25.43
2022-08-09T19:21:09.945Z,25.15
2022-08-09T19:24:35.953Z,25.02
2022-08-09T19:26:31.802Z,25.13
2022-08-09T19:29:15.417Z,25.21
2022-08-09T19:31:51.311Z,25.02
2022-08-09T19:34:22.226Z,24.84
2022-08-09T19:36:54.744Z,24.62
2022-08-09T19:39:42.915Z,24.33
2022-08-09T19:42:15.252Z,24.49
2022-08-09T19:44:50.651Z,24.31
2022-08-09T19:47:22.746Z,23.98
2022-08-09T19:50:07.375Z,24.03
2022-08-09T19:52:37.283Z,23.83
2022-08-09T19:55:17.627Z,23.86
2022-08-09T19:57:46.330Z,23.95
2022-08-09T20:00:15.614Z,23.87
2022-08-09T20:04:10.708Z,23.69
2022-08-09T20:05:46.036Z,23.18
2022-08-09T20:08:25.112Z,22.99
2022-08-09T20:11:02.701Z,23.32
2022-08-09T20:13:32.323Z,23.15
2022-08-09T20:16:37.315Z,23.29
2022-08-09T20:19:42.078Z,22.96
2022-08-09T20:21:54.791Z,23.20
2022-08-09T20:24:29.643Z,23.12
2022-08-09T20:27:01.158Z,22.89
2022-08-09T20:29:32.621Z,22.85
2022-08-09T20:32:30.131Z,22.93
2022-08-09T20:34:55.983Z,22.90
2022-08-09T20:37:23.059Z,22.94
2022-08-09T20:40:15.230Z,22.41
2022-08-09T20:42:37.735Z,22.51
2022-08-09T20:45:57.294Z,22.51
2022-08-09T20:47:52.729Z,22.37
2022-08-09T20:50:47.931Z,22.11
2022-08-09T20:53:22.712Z,22.10
2022-08-09T20:56:01.131Z,22.36
2022-08-09T20:58:32.346Z,22.22
2022-08-09T21:01:33.363Z,22.34
2022-08-09T21:05:48.720Z,22.20
2022-08-09T21:06:36.553Z,22.44
2022-08-09T21:09:03.676Z,22.39
2022-08-09T21:14:17.606Z,22.26
2022-08-09T21:16:45.612Z,22.20
2022-08-09T21:20:18.681Z,22.37
2022-08-09T21:22:00.158Z,22.13
2022-08-09T21:24:33.789Z,21.79
2022-08-09T21:27:50.407Z,21.79
2022-08-09T21:29:48.847Z,21.77
2022-08-09T21:32:18.608Z,21.63
2022-08-09T21:34:49.160Z,21.70
2022-08-09T21:37:18.302Z,21.77
2022-08-09T21:39:45.363Z,21.57
2022-08-09T21:42:17.698Z,21.55
2022-08-09T21:44:55.328Z,21.53
2022-08-09T21:47:22.568Z,21.63
2022-08-09T21:49:49.670Z,21.35
2022-08-09T21:52:20.960Z,21.49
2022-08-09T21:54:59.572Z,21.25
2022-08-09T21:57:39.459Z,21.29
2022-08-09T22:00:25.711Z,21.00
2022-08-09T22:02:58.911Z,21.02
2022-08-09T22:05:36.718Z,21.03
2022-08-09T22:08:06.097Z,21.08
2022-08-09T22:10:33.184Z,21.03
2022-08-09T22:13:07.513Z,21.02
2022-08-09T22:15:39.399Z,20.87
2022-08-09T22:18:12.179Z,20.94
2022-08-09T22:20:40.220Z,20.79
2022-08-09T22:23:10.543Z,20.59
2022-08-09T22:26:07.259Z,20.81
2022-08-09T22:28:32.604Z,20.58
2022-08-09T22:31:00.304Z,20.72
2022-08-09T22:33:37.570Z,20.65
2022-08-09T22:36:13.666Z,20.63
2022-08-09T22:38:47.246Z,20.73
2022-08-09T22:41:13.969Z,20.85
2022-08-09T22:44:02.697Z,20.79
2022-08-09T22:48:16.604Z,20.86
2022-08-09T22:49:14.673Z,20.90
2022-08-09T22:51:43.453Z,20.87
2022-08-09T22:54:16.887Z,20.51
2022-08-09T22:56:50.740Z,20.64
2022-08-09T22:59:55.658Z,20.69
2022-08-09T23:02:04.491Z,20.59
2022-08-09T23:04:32.707Z,20.33
2022-08-09T23:07:18.614Z,19.85
2022-08-09T23:10:05.626Z,19.69
2022-08-09T23:12:32.303Z,20.26
2022-08-09T23:14:59.001Z,20.12
2022-08-09T23:17:25.956Z,20.46
2022-08-09T23:20:02.469Z,20.36
2022-08-09T23:22:34.653Z,20.43
2022-08-09T23:25:05.043Z,20.29
2022-08-09T23:27:32.432Z,20.26
2022-08-09T23:29:59.281Z,20.38
2022-08-09T23:32:26.021Z,20.23
2022-08-09T23:34:52.718Z,19.69
2022-08-09T23:37:21.494Z,19.87
2022-08-09T23:39:49.710Z,19.98
2022-08-09T23:42:16.582Z,19.95
2022-08-09T23:44:43.411Z,19.97
2022-08-09T23:47:10.177Z,19.96
2022-08-09T23:49:36.873Z,19.91
2022-08-09T23:52:03.808Z,19.52
2022-08-09T23:54:30.598Z,18.99
2022-08-09T23:56:58.337Z,19.23
2022-08-09T23:59:26.047Z,19.50
